Portada
METAR-TAF:

METAR-TAF

Aeroports :

Batesville, Arkansas, Estats Units d'Amèrica

latitud: 35-44N, longitud: 091-39W, altitud: 141 m

Observació

L'informe es va fer fa 26 minuts, a les 03:56 UTC
Vent 3 kt del Nord
Temperatura 12°C
Humitat 94%
Pressió 1023 hPa
Visibilitat: 16.1 km
Escasses núvols a una alçada de 5000 ft
Cel cobert a una alçada de 6000 ft

METAR: KBVX 120356Z AUTO 36003KT 10SM FEW050 OVC060 12/11 A3020 RMK AO2 SLP225 T01220111

Hora: 23:22 (04:22 UTC)


TAF: manca

Observacions i pronòstics meteorològics de més de 4000 aeroports (METAR i TAF).

Les estacions disponibles són els punts grocs i vermells al mapa.

Posi el ratolí al punt desitjat per veure el nom de l'estació.

Feu clic per veure les observacions i els pronòstics meteorològics.

Per canviar el mapa: feu clic els botons verds amb una creu de color negre per apropar; al botó verd amb un guió per allunyar la imatge; o en les fletxes verdes per a mapes adjacents.


METAR-TAF: